Time;durP1;ratioP1;P1;durP2;ratioP2;P2;SDS_P1;SDS_P2;PMS_P1;PMS_P2;Temp;Humidity;BMP_temperature;BMP_pressure;BME280_temperature;BME280_humidity;BME280_pressure;Samples;Min_cycle;Max_cycle;Signal;HPM_P1;HPM_P2
2022/06/22 00:00:33;;;;;;;608.38;558.25;;;;;;;23.31;61.56;98751.41;5093890;28;20177;-77
2022/06/22 00:03:01;;;;;;;633.95;583.42;;;;;;;22.99;62.05;98760.00;5093634;28;20192;-77
2022/06/22 00:05:34;;;;;;;625.13;574.80;;;;;;;22.95;61.69;98759.53;5093389;28;20185;-76
2022/06/22 00:08:04;;;;;;;615.90;565.70;;;;;;;22.84;61.45;98765.50;5093495;28;20556;-76
2022/06/22 00:10:33;;;;;;;618.38;567.97;;;;;;;22.87;59.71;98779.69;5093056;28;20462;-78
2022/06/22 00:13:02;;;;;;;623.27;572.87;;;;;;;22.80;59.40;98783.38;5093060;28;20557;-75
2022/06/22 00:15:35;;;;;;;577.37;528.17;;;;;;;23.06;58.18;98777.44;5093260;28;20860;-76
2022/06/22 00:18:19;;;;;;;589.93;540.33;;;;;;;23.13;57.80;98780.28;5093648;28;20509;-77
2022/06/22 00:20:50;;;;;;;608.43;558.40;;;;;;;23.37;56.45;98788.22;5093245;28;20464;-77
2022/06/22 00:23:26;;;;;;;619.33;569.17;;;;;;;23.60;55.51;98803.72;5093534;28;20509;-77
2022/06/22 00:25:58;;;;;;;551.80;503.13;;;;;;;23.50;55.68;98802.13;5093793;28;20734;-76
2022/06/22 00:28:26;;;;;;;615.63;565.27;;;;;;;23.39;56.45;98796.28;5093620;28;20210;-77
2022/06/22 00:31:01;;;;;;;632.40;582.03;;;;;;;23.16;56.94;98788.16;5109419;28;20473;-77
2022/06/22 00:33:29;;;;;;;571.15;522.28;;;;;;;23.02;57.45;98781.59;5092447;28;20187;-76
2022/06/22 00:36:12;;;;;;;583.00;533.65;;;;;;;22.69;59.11;98771.81;5092306;28;20195;-76
2022/06/22 00:38:40;;;;;;;553.03;504.25;;;;;;;22.58;60.37;98769.53;5092765;28;20184;-77
2022/06/22 00:41:17;;;;;;;615.83;565.55;;;;;;;22.54;60.46;98764.59;5091731;28;20279;-76
2022/06/22 00:43:44;;;;;;;602.90;553.10;;;;;;;22.58;60.69;98749.47;5092220;28;20198;-77
2022/06/22 00:46:15;;;;;;;565.28;516.38;;;;;;;22.18;63.98;98727.72;5093206;28;20436;-77
2022/06/22 00:48:43;;;;;;;617.53;567.17;;;;;;;22.12;65.15;98719.38;5051951;28;20192;-77
2022/06/22 00:51:15;;;;;;;613.75;563.40;;;;;;;22.31;64.76;98718.03;5051868;28;20566;-77
2022/06/22 00:53:45;;;;;;;541.83;492.73;;;;;;;22.49;63.09;98716.63;5052559;28;20196;-77
2022/06/22 00:56:19;;;;;;;567.28;518.13;;;;;;;22.48;62.58;98711.34;5052748;28;20198;-77
2022/06/22 00:58:56;;;;;;;582.50;533.25;;;;;;;22.67;61.22;98713.53;5052509;28;20316;-77
2022/06/22 01:01:25;;;;;;;542.88;494.25;;;;;;;22.84;59.97;98711.47;5052097;28;20635;-77
2022/06/22 01:04:01;;;;;;;601.57;551.83;;;;;;;22.78;59.79;98703.13;5052573;28;20268;-76
2022/06/22 01:06:33;;;;;;;574.08;524.85;;;;;;;22.87;59.09;98696.50;5052270;28;21292;-76
2022/06/22 01:09:06;;;;;;;586.47;537.10;;;;;;;22.82;59.21;98694.34;5051775;28;20189;-77
2022/06/22 01:14:28;;;;;;;558.45;509.45;;;;;;;23.06;57.69;98717.88;5051580;28;20481;-76
2022/06/22 01:16:58;;;;;;;554.83;505.93;;;;;;;23.04;57.74;98738.34;5050581;28;20207;-77
2022/06/22 01:19:37;;;;;;;551.50;502.80;;;;;;;22.97;58.21;98734.63;5052169;28;21222;-77
2022/06/22 01:22:17;;;;;;;524.17;476.13;;;;;;;22.80;58.98;98717.53;5051967;28;20985;-77
2022/06/22 01:24:55;;;;;;;548.17;499.70;;;;;;;22.44;60.65;98718.25;5051618;28;20199;-77
2022/06/22 01:27:33;;;;;;;621.77;571.37;;;;;;;22.81;58.82;98706.34;5052099;28;20201;-76
2022/06/22 01:30:04;;;;;;;583.70;534.10;;;;;;;22.77;58.73;98716.00;5051868;28;20529;-77
2022/06/22 01:32:33;;;;;;;591.03;541.40;;;;;;;22.80;59.06;98709.28;5051576;28;20225;-77
2022/06/22 01:35:14;;;;;;;551.45;502.45;;;;;;;22.52;59.94;98700.84;5051237;28;20600;-77
2022/06/22 01:37:44;;;;;;;527.50;478.98;;;;;;;22.35;60.55;98692.78;5051589;28;20241;-77
2022/06/22 01:40:15;;;;;;;554.38;505.58;;;;;;;21.90;62.63;98689.06;5051120;28;20300;-77
2022/06/22 01:42:51;;;;;;;565.35;516.03;;;;;;;21.63;64.52;98683.09;5051729;28;20272;-77
2022/06/22 01:45:25;;;;;;;530.25;481.77;;;;;;;21.68;64.30;98679.78;5051449;28;20276;-76
2022/06/22 01:47:59;;;;;;;523.92;475.63;;;;;;;21.65;64.85;98686.50;5079768;28;20588;-78
2022/06/22 01:50:31;;;;;;;509.90;461.48;;;;;;;21.78;63.97;98676.84;5091809;28;20611;-75
2022/06/22 01:53:09;;;;;;;564.30;515.10;;;;;;;21.77;64.37;98680.59;5091665;28;20290;-76
2022/06/22 01:55:43;;;;;;;588.55;538.20;;;;;;;21.81;64.16;98687.41;5091301;28;20199;-78
2022/06/22 01:58:39;;;;;;;573.58;524.05;;;;;;;21.91;63.11;98693.50;5090652;28;20887;-77
2022/06/22 02:01:15;;;;;;;560.72;511.45;;;;;;;21.94;62.52;98689.56;5092794;28;20190;-77
2022/06/22 02:03:46;;;;;;;579.83;530.20;;;;;;;21.76;63.56;98693.44;5095892;28;20536;-77
2022/06/22 02:09:09;;;;;;;538.28;489.77;;;;;;;21.68;64.09;98701.72;5095759;28;20646;-77
2022/06/22 02:11:43;;;;;;;492.23;444.60;;;;;;;21.75;63.50;98708.16;5075853;28;20558;-78
2022/06/22 02:14:18;;;;;;;543.10;494.35;;;;;;;21.90;63.05;98699.16;5079920;28;20282;-77
2022/06/22 02:16:51;;;;;;;564.22;514.90;;;;;;;21.80;62.78;98697.53;5095305;28;20231;-78
2022/06/22 02:19:20;;;;;;;568.85;519.50;;;;;;;21.75;62.99;98688.97;5095834;28;20188;-77
2022/06/22 02:21:49;;;;;;;561.92;513.00;;;;;;;21.64;63.87;98692.19;5095634;28;20192;-77
2022/06/22 02:24:20;;;;;;;540.90;492.35;;;;;;;21.74;63.16;98679.06;5095304;28;20523;-77
2022/06/22 02:26:51;;;;;;;503.98;455.92;;;;;;;21.82;62.15;98675.41;5095798;28;20693;-77
2022/06/22 02:29:22;;;;;;;251.87;241.03;;;;;;;21.91;61.90;98676.19;5095337;28;20212;-77
2022/06/22 02:31:51;;;;;;;5.03;4.57;;;;;;;21.99;61.17;98670.66;5094735;28;20497;-77
2022/06/22 02:34:19;;;;;;;7.50;4.93;;;;;;;21.78;61.66;98658.50;5095620;28;20441;-77
2022/06/22 02:36:49;;;;;;;82.73;77.77;;;;;;;21.83;61.44;98661.53;5095816;28;20544;-77
2022/06/22 02:39:18;;;;;;;6.30;4.60;;;;;;;21.87;61.29;98670.25;5095561;28;20470;-77
2022/06/22 02:44:34;;;;;;;5.03;4.47;;;;;;;21.53;62.35;98679.75;5094885;28;20895;-77
2022/06/22 02:47:15;;;;;;;6.20;4.07;;;;;;;21.32;63.34;98690.44;5094301;28;20477;-77
2022/06/22 02:49:47;;;;;;;5.03;4.63;;;;;;;21.56;61.77;98703.19;5095241;28;20457;-77
2022/06/22 02:52:15;;;;;;;6.13;4.20;;;;;;;21.62;61.96;98713.41;5094353;28;20462;-76
2022/06/22 02:54:47;;;;;;;4.83;4.40;;;;;;;21.68;61.67;98709.94;5095110;28;20450;-76
2022/06/22 02:57:22;;;;;;;5.80;5.20;;;;;;;21.74;61.10;98701.00;5094766;28;20454;-77
2022/06/22 02:59:51;;;;;;;6.03;5.17;;;;;;;21.74;61.25;98692.78;5093914;28;20430;-77
2022/06/22 03:02:21;;;;;;;8.03;4.93;;;;;;;21.41;63.23;98701.22;5095151;28;20986;-78
2022/06/22 03:04:50;;;;;;;116.93;107.17;;;;;;;21.28;63.94;98706.41;5093955;28;20519;-77
2022/06/22 03:07:18;;;;;;;5.50;4.87;;;;;;;21.57;62.19;98710.34;5094934;28;21015;-78
2022/06/22 03:09:46;;;;;;;7.60;5.10;;;;;;;21.38;62.95;98712.50;5094764;28;20524;-76
2022/06/22 03:12:14;;;;;;;5.40;4.30;;;;;;;21.38;63.15;98712.50;5093888;28;20580;-76
2022/06/22 03:14:54;;;;;;;6.20;5.00;;;;;;;21.26;63.78;98719.41;5093980;28;20426;-77
2022/06/22 03:17:25;;;;;;;6.57;5.10;;;;;;;21.17;63.92;98715.84;5086596;28;20512;-77
2022/06/22 03:19:55;;;;;;;7.33;4.20;;;;;;;21.32;63.20;98729.63;5094295;28;20479;-77
2022/06/22 03:22:28;;;;;;;5.87;5.03;;;;;;;21.57;62.04;98729.53;5094572;28;20417;-77
2022/06/22 03:25:01;;;;;;;6.00;4.50;;;;;;;21.72;60.90;98730.44;5094568;28;20974;-77
2022/06/22 03:27:35;;;;;;;453.08;413.67;;;;;;;21.83;59.95;98738.25;5094679;28;20442;-77
2022/06/22 03:30:08;;;;;;;510.42;462.50;;;;;;;21.86;60.02;98726.06;5094693;28;20239;-77
2022/06/22 03:32:40;;;;;;;502.55;454.83;;;;;;;22.04;58.84;98723.88;5093934;28;20717;-77
2022/06/22 03:35:11;;;;;;;518.45;470.75;;;;;;;22.13;57.99;98729.28;5094046;28;20590;-76
2022/06/22 03:37:42;;;;;;;488.23;441.05;;;;;;;22.32;57.00;98738.91;5094536;28;20601;-77
2022/06/22 03:40:16;;;;;;;496.83;449.50;;;;;;;22.15;58.32;98729.97;5093871;28;20287;-76
2022/06/22 03:42:47;;;;;;;496.83;448.98;;;;;;;21.91;59.17;98734.63;5094095;28;20250;-77
2022/06/22 03:45:21;;;;;;;509.83;461.88;;;;;;;21.80;59.73;98743.25;5095962;28;20184;-76
2022/06/22 03:47:56;;;;;;;497.75;450.23;;;;;;;21.77;60.01;98746.34;5100412;28;20293;-77
2022/06/22 03:50:31;;;;;;;534.03;485.77;;;;;;;21.59;61.02;98749.38;5093840;28;20267;-77
2022/06/22 03:53:06;;;;;;;520.80;472.33;;;;;;;21.77;60.13;98743.59;5093893;28;20720;-76
2022/06/22 03:55:38;;;;;;;487.08;440.05;;;;;;;21.73;60.05;98728.56;5093795;28;20195;-77
2022/06/22 03:58:10;;;;;;;486.30;439.25;;;;;;;21.67;60.43;98719.19;5093605;28;20227;-77
2022/06/22 04:00:40;;;;;;;499.83;451.92;;;;;;;21.52;61.26;98721.84;5093066;28;20230;-78
2022/06/22 04:03:08;;;;;;;518.90;470.98;;;;;;;21.54;60.93;98728.00;5094065;28;20180;-78
2022/06/22 04:05:41;;;;;;;490.38;443.13;;;;;;;21.32;62.33;98721.41;5093334;28;20188;-78
2022/06/22 04:08:12;;;;;;;523.50;475.10;;;;;;;21.25;62.90;98717.69;5094193;28;20315;-76
2022/06/22 04:10:49;;;;;;;508.98;460.83;;;;;;;21.22;63.33;98727.13;5093559;28;20190;-76
2022/06/22 04:13:20;;;;;;;488.30;440.88;;;;;;;21.49;61.96;98722.22;5094774;28;20232;-74
2022/06/22 04:15:54;;;;;;;539.08;490.70;;;;;;;21.67;60.88;98724.69;5094831;28;20583;-74
2022/06/22 04:18:24;;;;;;;499.38;451.50;;;;;;;21.76;61.03;98725.47;5094362;28;20184;-74
2022/06/22 04:20:56;;;;;;;522.22;474.08;;;;;;;21.74;60.47;98730.28;5094807;28;20189;-73
2022/06/22 04:23:32;;;;;;;518.55;470.80;;;;;;;21.68;60.41;98728.25;5093998;28;20180;-73
2022/06/22 04:26:05;;;;;;;505.45;457.83;;;;;;;21.63;60.66;98724.16;5094220;28;20275;-75
2022/06/22 04:28:35;;;;;;;529.50;481.30;;;;;;;21.56;61.04;98734.16;5094756;28;20282;-74
2022/06/22 04:31:08;;;;;;;522.17;474.27;;;;;;;21.39;61.77;98735.25;5093215;28;20231;-74
2022/06/22 04:33:39;;;;;;;512.20;463.95;;;;;;;21.41;62.25;98736.81;5093567;28;20299;-74
2022/06/22 04:36:10;;;;;;;508.98;460.90;;;;;;;21.43;62.43;98744.84;5094268;28;20220;-74
2022/06/22 04:38:41;;;;;;;497.90;450.17;;;;;;;21.31;63.18;98744.38;5093986;28;20195;-73
2022/06/22 04:41:19;;;;;;;485.00;437.55;;;;;;;21.21;63.10;98754.66;5089530;28;20351;-75
2022/06/22 04:43:47;;;;;;;526.20;477.42;;;;;;;21.24;63.62;98740.63;5073487;28;20271;-75
2022/06/22 04:46:24;;;;;;;522.13;473.55;;;;;;;21.35;63.32;98742.97;5072982;28;20192;-75
2022/06/22 04:48:53;;;;;;;542.70;493.85;;;;;;;21.24;63.34;98743.38;5073197;28;20230;-76
2022/06/22 04:51:24;;;;;;;510.70;462.27;;;;;;;21.11;64.40;98745.81;5088222;28;20245;-73
2022/06/22 04:53:56;;;;;;;519.60;471.15;;;;;;;21.18;63.80;98750.41;5093346;28;20273;-74
2022/06/22 04:56:29;;;;;;;504.42;456.58;;;;;;;21.45;62.52;98754.56;5093297;28;20188;-75
2022/06/22 04:58:57;;;;;;;538.20;489.42;;;;;;;21.65;61.45;98752.25;5093663;28;20530;-75
2022/06/22 05:01:27;;;;;;;528.15;479.75;;;;;;;21.51;61.84;98758.50;5093620;28;20672;-75
2022/06/22 05:03:58;;;;;;;531.90;483.13;;;;;;;21.55;61.92;98762.59;5093808;28;20606;-76
2022/06/22 05:06:32;;;;;;;520.63;472.23;;;;;;;21.41;62.30;98764.22;5093319;28;20653;-75
2022/06/22 05:09:04;;;;;;;538.97;490.35;;;;;;;21.31;62.87;98762.69;5093759;28;20183;-76
2022/06/22 05:11:38;;;;;;;489.08;441.63;;;;;;;21.37;62.82;98776.50;5092165;28;20196;-76
2022/06/22 05:14:14;;;;;;;482.75;435.33;;;;;;;21.37;61.61;98775.63;5092946;28;20180;-74
2022/06/22 05:16:48;;;;;;;496.70;448.95;;;;;;;21.50;61.98;98766.88;5092861;28;20179;-75
2022/06/22 05:19:18;;;;;;;501.08;453.40;;;;;;;21.64;61.75;98777.09;5092263;28;20548;-75
2022/06/22 05:21:45;;;;;;;479.92;432.38;;;;;;;21.76;61.38;98772.06;5073802;28;20283;-75
2022/06/22 05:24:18;;;;;;;505.35;456.67;;;;;;;21.93;60.84;98772.78;5072601;28;20562;-76
2022/06/22 05:26:46;;;;;;;519.47;470.50;;;;;;;22.01;59.87;98772.72;5072080;28;20621;-76
2022/06/22 05:29:17;;;;;;;541.92;492.67;;;;;;;22.02;59.74;98767.03;5072053;28;20201;-74
2022/06/22 05:31:50;;;;;;;522.55;474.02;;;;;;;22.12;59.34;98771.47;5072128;28;20272;-74
2022/06/22 05:34:20;;;;;;;528.47;479.58;;;;;;;22.15;58.80;98765.59;5072349;28;20506;-77
2022/06/22 05:36:50;;;;;;;533.17;484.35;;;;;;;22.08;58.30;98758.09;5070997;28;20270;-78
2022/06/22 05:39:17;;;;;;;527.47;478.30;;;;;;;22.10;58.73;98757.94;5071132;28;20619;-79
2022/06/22 05:41:47;;;;;;;496.10;447.92;;;;;;;21.99;58.28;98761.94;5088719;28;20599;-78
2022/06/22 05:44:17;;;;;;;500.23;452.00;;;;;;;21.94;58.45;98766.28;5090475;28;20633;-78
2022/06/22 05:46:51;;;;;;;502.25;454.38;;;;;;;21.97;58.92;98769.50;5090204;28;20266;-78
2022/06/22 05:49:19;;;;;;;523.72;475.35;;;;;;;22.00;58.80;98768.28;5090256;28;20688;-76
2022/06/22 05:51:52;;;;;;;491.95;443.83;;;;;;;21.82;59.39;98769.44;5090293;28;20571;-77
2022/06/22 05:54:24;;;;;;;509.60;461.55;;;;;;;21.74;59.66;98779.59;5087934;28;20587;-79
2022/06/22 05:56:55;;;;;;;524.83;476.05;;;;;;;22.06;58.81;98786.72;5090783;28;20227;-78
2022/06/22 05:59:30;;;;;;;505.90;457.63;;;;;;;22.38;56.51;98793.03;5077538;28;20576;-78
2022/06/22 06:02:02;;;;;;;536.72;487.63;;;;;;;22.79;55.59;98795.38;5085141;28;20230;-78
2022/06/22 06:04:37;;;;;;;567.30;518.10;;;;;;;22.62;55.49;98790.06;5090689;28;20299;-78
2022/06/22 06:07:12;;;;;;;526.17;477.65;;;;;;;22.75;55.18;98792.19;5090902;28;20302;-77
2022/06/22 06:09:38;;;;;;;563.92;514.03;;;;;;;22.81;55.23;98787.81;5090376;28;20282;-79
2022/06/22 06:12:13;;;;;;;530.08;481.35;;;;;;;22.86;55.44;98777.13;5090635;28;20238;-76
2022/06/22 06:14:42;;;;;;;554.13;504.63;;;;;;;22.85;55.22;98783.66;5090627;28;20566;-77
2022/06/22 06:17:15;;;;;;;557.80;508.50;;;;;;;22.95;55.22;98781.50;5091019;28;20267;-78
2022/06/22 06:19:45;;;;;;;543.75;494.27;;;;;;;23.02;55.03;98776.13;5091025;28;20270;-77
2022/06/22 06:22:13;;;;;;;552.17;502.90;;;;;;;23.25;54.14;98782.38;5090910;28;20271;-78
2022/06/22 06:27:34;;;;;;;543.63;494.58;;;;;;;23.19;54.26;98765.81;5090210;28;20524;-77
2022/06/22 06:27:38;;;;;;;575.17;525.27;;;;;;;23.34;53.05;98769.41;5091052;28;20253;-77
2022/06/22 06:30:13;;;;;;;595.53;545.07;;;;;;;23.35;53.00;98770.25;5090789;28;20429;-78
2022/06/22 06:32:49;;;;;;;573.80;524.53;;;;;;;23.18;53.56;98766.81;5091819;28;21372;-76
2022/06/22 06:35:25;;;;;;;552.92;503.60;;;;;;;22.61;55.50;98763.69;5091283;28;20833;-80
2022/06/22 06:38:00;;;;;;;583.78;534.10;;;;;;;22.49;55.61;98760.50;5091988;28;20270;-77
2022/06/22 06:40:36;;;;;;;563.40;514.60;;;;;;;22.48;55.44;98760.72;5090392;28;20274;-78
2022/06/22 06:43:29;;;;;;;570.83;521.47;;;;;;;22.62;55.66;98751.66;5082304;28;20189;-77
2022/06/22 06:45:58;;;;;;;572.95;523.45;;;;;;;22.87;54.71;98752.22;5063583;28;20614;-78
2022/06/22 06:48:27;;;;;;;588.22;538.63;;;;;;;23.04;54.52;98761.19;5073654;28;20232;-76
2022/06/22 06:50:59;;;;;;;532.80;484.42;;;;;;;23.20;53.77;98764.75;5079348;28;20188;-78
2022/06/22 06:53:32;;;;;;;541.90;492.50;;;;;;;23.17;53.63;98756.91;5093986;28;20295;-77
2022/06/22 06:56:02;;;;;;;531.45;482.63;;;;;;;22.89;55.15;98749.31;5094394;28;20249;-79
2022/06/22 06:58:37;;;;;;;557.07;507.43;;;;;;;22.47;56.56;98757.09;5094268;28;20184;-78
2022/06/22 07:01:05;;;;;;;519.17;470.88;;;;;;;22.40;57.30;98760.78;5102349;28;20429;-78
2022/06/22 07:03:38;;;;;;;560.35;510.63;;;;;;;22.51;57.10;98759.50;5108829;28;20214;-79
2022/06/22 07:06:05;;;;;;;558.97;509.63;;;;;;;22.55;56.53;98780.03;5112719;28;20602;-78
2022/06/22 07:08:37;;;;;;;551.03;502.08;;;;;;;22.47;56.62;98780.94;5097764;28;20283;-79
2022/06/22 07:11:10;;;;;;;580.47;530.50;;;;;;;22.45;57.07;98780.28;5085757;28;20199;-77
2022/06/22 07:13:46;;;;;;;546.28;497.15;;;;;;;22.46;56.39;98787.47;5093074;28;20338;-78
2022/06/22 07:16:15;;;;;;;551.33;502.23;;;;;;;22.52;56.58;98781.22;5094026;28;20230;-76
2022/06/22 07:18:48;;;;;;;541.80;492.63;;;;;;;22.68;55.80;98785.69;5094093;28;20234;-78
2022/06/22 07:21:20;;;;;;;529.30;480.60;;;;;;;22.67;55.74;98776.63;5098166;28;20668;-81
2022/06/22 07:23:52;;;;;;;546.33;497.38;;;;;;;22.52;55.80;98791.34;5095144;28;20188;-84
2022/06/22 07:26:30;;;;;;;521.70;473.20;;;;;;;22.20;57.42;98796.03;5094861;28;20475;-82
2022/06/22 07:29:02;;;;;;;525.47;476.75;;;;;;;22.22;58.11;98800.34;5094244;28;20373;-83
2022/06/22 07:31:34;;;;;;;554.03;504.77;;;;;;;22.16;58.45;98787.34;5095104;28;20200;-81
2022/06/22 07:34:10;;;;;;;545.55;496.88;;;;;;;22.39;56.86;98809.31;5093972;28;20204;-82
2022/06/22 07:36:46;;;;;;;572.80;523.00;;;;;;;22.43;56.07;98805.16;5093611;28;20188;-83
2022/06/22 07:39:17;;;;;;;516.55;468.83;;;;;;;22.77;55.19;98811.16;5094123;28;20274;-84
2022/06/22 07:41:44;;;;;;;546.17;497.45;;;;;;;22.66;55.58;98813.34;5093683;28;20601;-81
2022/06/22 07:44:16;;;;;;;529.38;480.35;;;;;;;22.69;55.20;98809.38;5093323;28;20608;-83
2022/06/22 07:46:50;;;;;;;549.38;500.52;;;;;;;22.60;55.38;98794.88;5092593;28;20260;-83
2022/06/22 07:49:22;;;;;;;581.10;531.20;;;;;;;22.61;55.49;98791.13;5083308;28;20237;-84
2022/06/22 07:51:51;;;;;;;524.50;476.33;;;;;;;22.65;55.85;98783.34;5093944;28;20927;-80
2022/06/22 07:54:23;;;;;;;587.85;538.05;;;;;;;22.83;54.94;98788.47;5093944;28;20291;-81
2022/06/22 07:57:09;;;;;;;561.20;511.05;;;;;;;22.80;54.86;98762.28;5101473;28;20191;-77
2022/06/22 07:59:44;;;;;;;543.13;494.20;;;;;;;22.75;55.18;98767.47;5091883;28;20226;-77
2022/06/22 08:02:16;;;;;;;566.67;517.35;;;;;;;22.86;54.88;98755.16;5093709;28;20188;-78
2022/06/22 08:04:50;;;;;;;547.30;498.75;;;;;;;23.02;54.64;98752.28;5093557;28;20265;-78
2022/06/22 08:07:20;;;;;;;538.00;489.30;;;;;;;23.03;54.93;98751.22;5094096;28;20630;-78
2022/06/22 08:09:54;;;;;;;570.87;521.60;;;;;;;23.10;54.64;98754.91;5092996;28;20639;-76
2022/06/22 08:12:25;;;;;;;591.03;541.03;;;;;;;23.05;55.32;98762.88;5093000;28;20446;-77
2022/06/22 08:14:54;;;;;;;602.08;552.05;;;;;;;23.29;54.71;98760.84;5093798;28;20533;-78
2022/06/22 08:17:36;;;;;;;545.40;496.70;;;;;;;22.88;56.62;98758.56;5093270;28;20200;-77
2022/06/22 08:20:10;;;;;;;553.58;504.63;;;;;;;22.39;59.45;98756.34;5093029;28;20434;-78
2022/06/22 08:22:37;;;;;;;584.80;535.40;;;;;;;22.49;59.74;98757.78;5095141;28;20192;-78
2022/06/22 08:25:07;;;;;;;581.20;531.30;;;;;;;22.87;58.90;98752.22;5093698;28;20220;-76
2022/06/22 08:27:35;;;;;;;563.87;514.10;;;;;;;23.01;58.33;98764.28;5094312;28;20549;-77
2022/06/22 08:30:02;;;;;;;575.30;525.47;;;;;;;23.24;57.32;98764.19;5093729;28;20473;-78
2022/06/22 08:32:33;;;;;;;583.67;534.07;;;;;;;23.27;57.58;98768.47;5093362;28;20227;-77
2022/06/22 08:35:06;;;;;;;560.72;511.48;;;;;;;23.16;58.15;98775.28;5092922;28;20470;-78
2022/06/22 08:37:40;;;;;;;550.88;502.02;;;;;;;23.03;59.24;98773.19;5094372;28;20683;-78
2022/06/22 08:40:14;;;;;;;604.07;554.03;;;;;;;23.12;59.12;98779.44;5092627;28;20270;-80
2022/06/22 08:42:52;;;;;;;590.63;541.00;;;;;;;23.27;58.79;98785.78;5092676;28;20437;-79
2022/06/22 08:45:34;;;;;;;558.17;509.23;;;;;;;23.46;58.23;98781.59;5092997;28;20461;-79
2022/06/22 08:48:49;;;;;;;557.17;508.05;;;;;;;23.52;57.17;98779.97;5092748;28;20307;-80
2022/06/22 08:51:38;;;;;;;569.20;520.07;;;;;;;23.32;57.11;98776.97;5010088;28;20198;-77
2022/06/22 08:54:26;;;;;;;592.07;542.23;;;;;;;23.34;56.81;98780.38;5073171;28;20899;-77
2022/06/22 08:56:59;;;;;;;570.57;521.30;;;;;;;23.19;58.04;98782.28;5072551;28;20547;-78
2022/06/22 08:59:58;;;;;;;563.78;514.53;;;;;;;23.20;58.31;98795.84;5072374;28;20423;-78
2022/06/22 09:02:50;;;;;;;601.25;550.83;;;;;;;23.51;57.59;98792.84;5072215;28;20650;-78
2022/06/22 09:05:46;;;;;;;569.63;519.90;;;;;;;23.65;57.35;98806.75;5092700;28;20219;-75
2022/06/22 09:08:36;;;;;;;621.13;570.67;;;;;;;23.73;56.67;98803.91;5071870;28;20192;-76
2022/06/22 09:11:16;;;;;;;587.77;538.17;;;;;;;23.63;57.29;98814.31;5088230;28;20474;-75
2022/06/22 09:14:01;;;;;;;596.03;546.17;;;;;;;23.57;57.69;98815.13;5092239;28;20497;-74
2022/06/22 09:16:41;;;;;;;574.23;524.53;;;;;;;23.63;58.12;98803.34;5092154;28;20536;-74
2022/06/22 09:19:24;;;;;;;618.10;567.33;;;;;;;23.92;57.32;98810.69;5091711;28;20985;-74
2022/06/22 09:22:02;;;;;;;607.30;556.43;;;;;;;23.96;57.20;98811.16;5091827;28;20948;-74
2022/06/22 09:24:39;;;;;;;581.13;531.60;;;;;;;23.92;57.73;98810.69;5090982;28;20442;-75
2022/06/22 09:27:16;;;;;;;630.47;579.27;;;;;;;23.81;58.64;98803.81;5091414;28;20454;-76
2022/06/22 09:30:05;;;;;;;627.80;576.93;;;;;;;23.85;58.65;98805.13;5091430;28;20915;-74
2022/06/22 09:32:50;;;;;;;641.50;590.23;;;;;;;23.98;58.86;98807.16;5085761;28;20516;-75
2022/06/22 09:35:41;;;;;;;580.05;530.25;;;;;;;23.95;59.18;98799.31;5091654;28;20552;-75
2022/06/22 09:38:31;;;;;;;611.07;560.10;;;;;;;23.80;60.37;98799.34;5091178;28;20649;-75
2022/06/22 09:41:08;;;;;;;604.17;553.07;;;;;;;24.04;59.11;98791.81;5091223;28;20553;-75
2022/06/22 09:44:01;;;;;;;638.27;586.53;;;;;;;23.51;61.46;98792.84;5090920;28;20517;-76
2022/06/22 09:46:45;;;;;;;606.37;555.67;;;;;;;23.79;60.76;98797.66;5091231;28;20509;-75
2022/06/22 09:49:42;;;;;;;641.40;589.53;;;;;;;23.83;60.90;98801.72;5088800;28;20456;-74
2022/06/22 09:52:22;;;;;;;622.73;571.60;;;;;;;23.76;61.42;98806.28;5090185;28;20526;-75
2022/06/22 09:58:11;;;;;;;603.60;553.43;;;;;;;23.76;62.66;98799.94;5090969;28;20425;-75
2022/06/22 10:00:46;;;;;;;637.83;586.57;;;;;;;23.90;62.07;98808.16;5091444;28;20504;-75
2022/06/22 10:03:52;;;;;;;623.37;571.43;;;;;;;24.13;61.58;98818.13;5091333;28;20435;-75
2022/06/22 10:06:44;;;;;;;595.70;545.00;;;;;;;24.28;60.74;98812.56;5061131;28;20449;-75
2022/06/22 10:09:40;;;;;;;635.73;585.07;;;;;;;24.37;60.66;98816.03;5089028;28;20449;-75
2022/06/22 10:12:33;;;;;;;653.43;602.03;;;;;;;24.40;61.03;98827.50;5091288;28;21371;-75
2022/06/22 10:15:31;;;;;;;653.43;602.10;;;;;;;24.70;59.75;98813.59;5091306;28;20523;-74
2022/06/22 10:18:14;;;;;;;658.73;606.93;;;;;;;24.92;59.21;98817.16;5092176;28;20441;-75
2022/06/22 10:20:57;;;;;;;674.77;622.90;;;;;;;25.14;58.56;98821.53;5102325;28;20430;-74
2022/06/22 10:23:40;;;;;;;657.20;605.50;;;;;;;24.81;59.65;98825.97;5094455;28;20463;-75
2022/06/22 10:26:25;;;;;;;651.30;599.73;;;;;;;24.62;60.57;98825.59;5095052;28;20426;-74
2022/06/22 10:29:24;;;;;;;647.57;596.40;;;;;;;24.72;60.51;98823.38;5095237;28;20426;-74
2022/06/22 10:32:05;;;;;;;619.73;568.83;;;;;;;24.74;61.36;98817.66;5088143;28;20449;-75
2022/06/22 10:34:45;;;;;;;629.87;579.37;;;;;;;24.95;60.04;98814.00;5095531;28;20527;-75
2022/06/22 10:37:38;;;;;;;637.30;586.70;;;;;;;24.77;61.53;98809.84;5095372;28;20426;-75
2022/06/22 10:46:23;;;;;;;670.23;618.50;;;;;;;25.98;57.70;98805.88;5071287;28;20853;-75
2022/06/22 10:49:24;;;;;;;668.17;616.60;;;;;;;26.70;54.45;98806.22;5084582;28;20474;-75
2022/06/22 10:52:17;;;;;;;702.73;650.47;;;;;;;27.17;52.91;98810.63;5087324;28;20490;-75
2022/06/22 10:55:28;;;;;;;708.90;656.53;;;;;;;26.98;53.15;98812.38;5081299;28;20963;-76
2022/06/22 10:58:24;;;;;;;696.80;644.80;;;;;;;26.83;54.47;98823.63;5022225;28;20950;-74
2022/06/22 11:01:11;;;;;;;690.33;637.33;;;;;;;27.13;53.85;98825.09;5084311;28;20537;-75
2022/06/22 11:04:10;;;;;;;707.63;655.33;;;;;;;27.14;54.59;98819.34;5094555;28;20438;-74
2022/06/22 11:07:15;;;;;;;720.27;667.67;;;;;;;27.72;52.85;98826.00;5094068;28;20458;-76
2022/06/22 11:10:17;;;;;;;714.63;662.13;;;;;;;28.00;52.24;98823.78;5094088;28;20784;-75
2022/06/22 11:13:05;;;;;;;709.37;657.27;;;;;;;28.63;50.33;98831.28;5090948;28;20441;-75
2022/06/22 11:16:04;;;;;;;717.97;664.60;;;;;;;28.99;49.15;98834.38;5094002;28;20461;-76
2022/06/22 11:18:53;;;;;;;727.53;674.67;;;;;;;28.58;50.80;98833.88;5094358;28;20444;-78
2022/06/22 11:21:36;;;;;;;749.07;695.57;;;;;;;28.48;51.68;98831.59;5093588;28;20442;-75
2022/06/22 11:24:37;;;;;;;763.70;710.40;;;;;;;28.94;50.54;98834.22;5091574;28;20477;-75
2022/06/22 11:33:12;;;;;;;793.03;738.47;;;;;;;30.19;47.72;98836.69;5093758;28;20412;-77
2022/06/22 11:35:55;;;;;;;788.40;734.03;;;;;;;30.11;48.13;98823.97;5093139;28;20454;-76
2022/06/22 11:38:43;;;;;;;788.63;735.17;;;;;;;29.56;50.04;98815.72;5085822;28;20863;-75
2022/06/22 11:41:26;;;;;;;804.37;749.97;;;;;;;29.13;51.65;98816.59;5092630;28;20489;-75
2022/06/22 11:44:21;;;;;;;784.33;730.27;;;;;;;29.06;51.98;98819.41;5093021;28;20789;-75
2022/06/22 11:46:52;;;;;;;795.00;739.63;;;;;;;29.34;51.55;98820.00;5092495;28;20883;-76
2022/06/22 11:49:40;;;;;;;768.70;715.17;;;;;;;29.46;51.54;98815.38;5093593;28;20434;-75
2022/06/22 11:52:42;;;;;;;755.83;702.97;;;;;;;30.03;50.48;98812.34;5092968;28;20530;-75
2022/06/22 11:55:25;;;;;;;780.77;727.47;;;;;;;29.97;50.34;98814.16;5084313;28;20472;-75
2022/06/22 11:58:15;;;;;;;796.13;741.73;;;;;;;30.14;50.40;98806.88;5093713;28;20453;-76
2022/06/22 12:00:56;;;;;;;795.40;741.83;;;;;;;30.24;50.11;98802.69;5093475;28;20438;-74
2022/06/22 12:03:58;;;;;;;822.33;767.40;;;;;;;30.29;50.00;98805.63;5093792;28;20952;-76
2022/06/22 12:07:04;;;;;;;796.77;742.67;;;;;;;30.30;50.24;98793.41;5092795;28;20547;-75
2022/06/22 12:10:29;;;;;;;808.70;754.30;;;;;;;29.37;53.36;98794.59;4985096;28;20933;-77